createdAt,value
2019-04-06T00:01:48.007Z,67.86
2019-04-06T00:04:18.721Z,68.06
2019-04-06T00:06:49.394Z,67.80
2019-04-06T00:09:20.114Z,68.22
2019-04-06T00:11:51.180Z,68.15
2019-04-06T00:14:21.882Z,68.38
2019-04-06T00:16:52.621Z,68.95
2019-04-06T00:19:23.323Z,69.07
2019-04-06T00:21:54.023Z,69.29
2019-04-06T00:24:24.705Z,69.15
2019-04-06T00:26:55.481Z,69.62
2019-04-06T00:29:26.164Z,69.15
2019-04-06T00:32:13.735Z,69.24
2019-04-06T00:34:44.473Z,69.28
2019-04-06T00:37:15.198Z,70.50
2019-04-06T00:39:45.873Z,70.91
2019-04-06T00:42:16.588Z,70.78
2019-04-06T00:44:47.338Z,70.61
2019-04-06T00:47:18.031Z,70.82
2019-04-06T00:49:48.684Z,71.12
2019-04-06T00:52:19.344Z,71.36
2019-04-06T00:54:50.071Z,70.82
2019-04-06T00:57:20.781Z,70.77
2019-04-06T00:59:51.434Z,70.92
2019-04-06T01:02:22.103Z,71.23
2019-04-06T01:04:52.811Z,70.62
2019-04-06T01:07:23.561Z,70.88
2019-04-06T01:09:54.348Z,71.14
2019-04-06T01:12:25.249Z,70.95
2019-04-06T01:14:55.960Z,71.16
2019-04-06T01:17:26.649Z,71.91
2019-04-06T01:19:57.322Z,71.37
2019-04-06T01:22:28.038Z,72.24
2019-04-06T01:24:58.865Z,71.63
2019-04-06T01:27:29.524Z,72.36
2019-04-06T01:30:00.389Z,71.95
2019-04-06T01:32:32.169Z,71.05
2019-04-06T01:35:02.970Z,71.79
2019-04-06T01:37:34.074Z,72.25
2019-04-06T01:40:05.267Z,72.62
2019-04-06T01:42:35.977Z,72.83
2019-04-06T01:45:07.103Z,72.83
2019-04-06T01:47:37.911Z,72.36
2019-04-06T01:50:08.922Z,72.83
2019-04-06T01:52:39.760Z,72.66
2019-04-06T01:55:11.644Z,72.90
2019-04-06T01:57:42.301Z,73.45
2019-04-06T02:00:14.436Z,73.24
2019-04-06T02:02:50.595Z,72.64
2019-04-06T02:05:21.321Z,72.69
2019-04-06T02:07:52.401Z,72.50
2019-04-06T02:10:24.558Z,72.53
2019-04-06T02:12:55.238Z,72.95
2019-04-06T02:15:25.995Z,73.01
2019-04-06T02:17:56.740Z,72.95
2019-04-06T02:20:27.389Z,73.51
2019-04-06T02:22:58.122Z,72.14
2019-04-06T02:25:28.867Z,72.30
2019-04-06T02:27:59.595Z,71.74
2019-04-06T02:30:37.289Z,71.72
2019-04-06T02:33:15.979Z,72.43
2019-04-06T02:35:52.456Z,73.28
2019-04-06T02:38:44.870Z,74.06
2019-04-06T02:41:25.152Z,74.61
2019-04-06T02:43:56.163Z,74.52
2019-04-06T02:46:26.827Z,73.69
2019-04-06T02:48:58.941Z,74.34
2019-04-06T02:51:29.618Z,74.44
2019-04-06T02:54:00.259Z,73.96
2019-04-06T02:56:44.864Z,74.08
2019-04-06T02:59:03.549Z,75.14
2019-04-06T03:01:34.251Z,74.62
2019-04-06T03:04:04.965Z,74.53
2019-04-06T03:06:37.224Z,74.39
2019-04-06T03:09:11.263Z,74.07
2019-04-06T03:11:40.830Z,73.68
2019-04-06T03:14:12.131Z,73.53
2019-04-06T03:16:42.919Z,72.48
2019-04-06T03:19:14.037Z,74.01
2019-04-06T03:21:46.114Z,73.99
2019-04-06T03:24:16.774Z,74.17
2019-04-06T03:26:59.880Z,74.98
2019-04-06T03:29:19.772Z,75.46
2019-04-06T03:31:51.728Z,75.91
2019-04-06T03:34:23.228Z,76.85
2019-04-06T03:36:54.523Z,75.99
2019-04-06T03:39:28.194Z,75.96
2019-04-06T03:41:58.897Z,75.84
2019-04-06T03:44:31.949Z,76.52
2019-04-06T03:47:02.694Z,76.94
2019-04-06T03:49:33.424Z,77.63
2019-04-06T03:52:06.400Z,77.45
2019-04-06T03:54:37.311Z,77.32
2019-04-06T03:57:15.985Z,76.96
2019-04-06T03:59:40.719Z,76.76
2019-04-06T04:02:11.398Z,77.19
2019-04-06T04:04:42.064Z,77.95
2019-04-06T04:07:12.753Z,78.26
2019-04-06T04:09:43.915Z,78.57
2019-04-06T04:12:14.661Z,78.01
2019-04-06T04:14:45.319Z,78.69
2019-04-06T04:17:17.032Z,77.02
2019-04-06T04:19:47.659Z,77.22
2019-04-06T04:22:18.320Z,78.38
2019-04-06T04:24:49.856Z,78.14
2019-04-06T04:27:28.848Z,77.99
2019-04-06T04:29:54.577Z,78.29
2019-04-06T04:32:25.206Z,78.07
2019-04-06T04:34:56.283Z,78.50
2019-04-06T04:37:27.005Z,78.29
2019-04-06T04:39:57.895Z,78.77
2019-04-06T04:42:28.992Z,78.17
2019-04-06T04:44:59.694Z,77.78
2019-04-06T04:47:30.598Z,78.61
2019-04-06T04:50:01.521Z,78.31
2019-04-06T04:52:32.246Z,76.84
2019-04-06T04:55:02.958Z,77.22
2019-04-06T04:57:40.115Z,77.25
2019-04-06T05:00:06.963Z,77.71
2019-04-06T05:02:37.610Z,77.24
2019-04-06T05:05:09.673Z,77.98
2019-04-06T05:07:40.709Z,77.51
2019-04-06T05:10:11.773Z,77.50
2019-04-06T05:12:42.376Z,77.96
2019-04-06T05:15:21.093Z,79.52
2019-04-06T05:17:51.723Z,79.01
2019-04-06T05:20:23.927Z,79.35
2019-04-06T05:22:55.941Z,78.12
2019-04-06T05:25:26.625Z,78.12
2019-04-06T05:27:57.409Z,78.50
2019-04-06T05:30:28.007Z,79.00
2019-04-06T05:32:58.578Z,78.85
2019-04-06T05:35:29.313Z,78.32
2019-04-06T05:38:00.114Z,77.86
2019-04-06T05:40:30.717Z,77.89
2019-04-06T05:43:01.345Z,77.10
2019-04-06T05:45:32.082Z,78.13
2019-04-06T05:48:02.834Z,78.04
2019-04-06T05:50:33.466Z,78.55
2019-04-06T05:53:04.101Z,78.80
2019-04-06T05:55:35.091Z,78.38
2019-04-06T05:58:09.789Z,78.53
2019-04-06T06:00:40.524Z,77.91
2019-04-06T06:03:11.386Z,78.96
2019-04-06T06:05:42.362Z,79.48
2019-04-06T06:08:13.033Z,79.50
2019-04-06T06:10:43.801Z,79.77
2019-04-06T06:13:14.458Z,78.79
2019-04-06T06:15:45.558Z,78.54
2019-04-06T06:18:25.672Z,78.59
2019-04-06T06:20:48.969Z,78.88
2019-04-06T06:23:19.891Z,78.35
2019-04-06T06:25:50.688Z,78.65
2019-04-06T06:28:21.701Z,78.45
2019-04-06T06:30:52.339Z,78.00
2019-04-06T06:33:23.025Z,78.39
2019-04-06T06:35:53.709Z,78.62
2019-04-06T06:38:24.717Z,78.26
2019-04-06T06:40:55.489Z,77.58
2019-04-06T06:43:26.251Z,77.52
2019-04-06T06:46:00.134Z,77.74
2019-04-06T06:48:30.884Z,77.87
2019-04-06T06:51:01.611Z,77.60
2019-04-06T06:53:32.421Z,78.62
2019-04-06T06:56:03.377Z,78.70
2019-04-06T06:58:34.068Z,78.58
2019-04-06T07:01:04.736Z,78.58
2019-04-06T07:03:35.775Z,78.72
2019-04-06T07:06:06.918Z,78.56
2019-04-06T07:08:39.598Z,78.56
2019-04-06T07:11:10.190Z,78.68
2019-04-06T07:13:40.957Z,78.62
2019-04-06T07:16:12.284Z,78.20
2019-04-06T07:18:42.961Z,78.75
2019-04-06T07:21:15.463Z,78.64
2019-04-06T07:23:45.992Z,78.45
2019-04-06T07:26:16.884Z,78.49
2019-04-06T07:28:47.561Z,79.08
2019-04-06T07:31:19.011Z,78.96
2019-04-06T07:33:49.540Z,78.81
2019-04-06T07:36:20.627Z,78.91
2019-04-06T07:38:51.205Z,78.42
2019-04-06T07:41:22.028Z,78.48
2019-04-06T07:43:54.581Z,78.72
2019-04-06T07:46:25.313Z,78.02
2019-04-06T07:51:30.524Z,78.52
2019-04-06T07:54:03.929Z,78.37
2019-04-06T07:56:35.048Z,78.25
2019-04-06T07:59:05.898Z,77.71
2019-04-06T08:01:36.538Z,77.40
2019-04-06T08:04:08.447Z,77.59
2019-04-06T08:06:40.613Z,77.94
2019-04-06T08:09:11.281Z,78.06
2019-04-06T08:11:42.008Z,78.38
2019-04-06T08:14:14.293Z,78.59
2019-04-06T08:16:45.695Z,78.65
2019-04-06T08:19:16.888Z,78.36
2019-04-06T08:21:47.747Z,77.59
2019-04-06T08:24:21.564Z,77.71
2019-04-06T08:26:52.369Z,77.77
2019-04-06T08:29:23.184Z,77.13
2019-04-06T08:31:53.957Z,77.01
2019-04-06T08:34:24.664Z,77.01
2019-04-06T08:36:55.406Z,76.59
2019-04-06T08:39:28.233Z,76.48
2019-04-06T08:41:58.961Z,76.75
2019-04-06T08:44:29.689Z,77.11
2019-04-06T08:47:00.786Z,77.10
2019-04-06T08:49:33.747Z,77.11
2019-04-06T08:52:04.696Z,76.69
2019-04-06T08:54:35.411Z,76.43
2019-04-06T08:57:06.445Z,76.12
2019-04-06T08:59:39.094Z,75.98
2019-04-06T09:02:09.994Z,75.62
2019-04-06T09:04:40.829Z,75.42
2019-04-06T09:07:11.753Z,75.62
2019-04-06T09:09:42.627Z,74.95
2019-04-06T09:12:15.113Z,75.16
2019-04-06T09:14:45.746Z,75.41
2019-04-06T09:17:16.831Z,75.78
2019-04-06T09:19:47.631Z,75.80
2019-04-06T09:22:18.371Z,75.02
2019-04-06T09:24:49.070Z,75.42
2019-04-06T09:27:20.357Z,75.40
2019-04-06T09:29:51.109Z,75.19
2019-04-06T09:32:22.256Z,74.88
2019-04-06T09:34:52.977Z,74.59
2019-04-06T09:37:25.205Z,75.37
2019-04-06T09:39:58.102Z,75.38
2019-04-06T09:42:30.704Z,75.65
2019-04-06T09:45:15.940Z,75.38
2019-04-06T09:47:52.890Z,75.71
2019-04-06T09:50:45.165Z,75.37
2019-04-06T09:54:27.340Z,75.32
2019-04-06T10:01:40.937Z,75.76
2019-04-06T10:08:41.669Z,75.91
2019-04-06T10:16:00.184Z,75.45
2019-04-06T10:21:57.876Z,74.96
2019-04-06T10:24:52.651Z,75.48
2019-04-06T10:36:32.353Z,75.10
2019-04-06T10:40:26.919Z,75.32
2019-04-06T10:44:11.972Z,74.32
2019-04-06T10:47:29.888Z,74.03
2019-04-06T10:58:21.100Z,74.01
2019-04-06T11:01:59.979Z,73.96
2019-04-06T11:05:10.765Z,74.11
2019-04-06T11:08:17.425Z,74.02
2019-04-06T11:11:20.850Z,73.84
2019-04-06T11:14:27.494Z,74.19
2019-04-06T11:18:15.262Z,73.56
2019-04-06T11:21:05.490Z,73.41
2019-04-06T11:24:52.053Z,73.36
2019-04-06T11:27:52.995Z,72.32
2019-04-06T11:30:42.161Z,71.90
2019-04-06T11:33:36.667Z,72.01
2019-04-06T11:36:25.072Z,70.56
2019-04-06T11:39:13.806Z,70.47
2019-04-06T11:42:13.375Z,70.08
2019-04-06T11:45:03.959Z,68.32
2019-04-06T11:47:52.623Z,67.54
2019-04-06T11:50:43.582Z,69.39
2019-04-06T11:53:49.965Z,65.48
2019-04-06T11:56:32.213Z,67.73
2019-04-06T11:59:29.597Z,65.44
2019-04-06T12:05:41.896Z,65.30
2019-04-06T12:14:35.126Z,63.12
2019-04-06T12:17:19.248Z,58.00
2019-04-06T12:20:07.709Z,62.19
2019-04-06T12:22:45.634Z,56.98
2019-04-06T12:25:41.595Z,58.62
2019-04-06T12:28:44.483Z,59.56
2019-04-06T12:31:26.197Z,56.76
2019-04-06T12:34:08.974Z,55.56
2019-04-06T12:36:59.786Z,54.73
2019-04-06T12:39:53.381Z,56.24
2019-04-06T12:42:47.442Z,55.01
2019-04-06T12:45:28.350Z,53.46
2019-04-06T12:48:28.852Z,47.58
2019-04-06T12:51:29.729Z,45.62
2019-04-06T12:54:10.700Z,46.81
2019-04-06T12:56:53.849Z,45.09
2019-04-06T12:59:42.710Z,42.99
2019-04-06T13:02:48.377Z,43.62
2019-04-06T13:05:41.226Z,42.95
2019-04-06T13:08:36.689Z,38.92
2019-04-06T13:11:34.573Z,41.87
2019-04-06T13:14:15.780Z,43.72
2019-04-06T13:17:11.829Z,45.62
2019-04-06T13:19:52.722Z,46.40
2019-04-06T13:22:41.741Z,46.17
2019-04-06T13:25:29.038Z,46.94
2019-04-06T13:28:20.053Z,47.12
2019-04-06T13:31:22.111Z,48.15
2019-04-06T13:34:19.987Z,47.35
2019-04-06T13:37:00.947Z,46.88
2019-04-06T13:40:04.497Z,47.79
2019-04-06T13:42:55.101Z,48.36
2019-04-06T13:45:45.956Z,47.97
2019-04-06T13:48:41.486Z,48.41
2019-04-06T13:51:29.627Z,49.15
2019-04-06T13:54:22.397Z,49.70
2019-04-06T13:57:06.250Z,49.60
2019-04-06T13:59:54.857Z,49.04
2019-04-06T14:02:46.224Z,49.97
2019-04-06T14:05:41.024Z,49.75
2019-04-06T14:08:57.724Z,49.64
2019-04-06T14:12:04.255Z,49.83
2019-04-06T14:14:52.640Z,50.19
2019-04-06T14:17:40.767Z,47.30
2019-04-06T14:20:19.907Z,46.31
2019-04-06T14:23:06.162Z,46.38
2019-04-06T14:25:54.623Z,47.75
2019-04-06T14:28:36.369Z,47.77
2019-04-06T14:31:28.255Z,45.24
2019-04-06T14:34:14.302Z,45.25
2019-04-06T14:37:02.362Z,45.21
2019-04-06T14:39:51.060Z,45.94
2019-04-06T14:42:46.657Z,46.77
2019-04-06T14:45:42.174Z,47.72
2019-04-06T14:48:31.831Z,47.94
2019-04-06T14:51:22.713Z,47.46
2019-04-06T14:53:59.639Z,48.34
2019-04-06T14:57:05.852Z,48.34
2019-04-06T14:59:53.213Z,48.15
2019-04-06T15:02:47.085Z,48.29
2019-04-06T15:05:25.277Z,48.88
2019-04-06T15:08:19.325Z,49.47
2019-04-06T15:11:07.494Z,49.28
2019-04-06T15:13:56.322Z,49.76
2019-04-06T15:16:53.244Z,49.84
2019-04-06T15:19:43.424Z,49.19
2019-04-06T15:22:41.285Z,48.82
2019-04-06T15:25:35.814Z,48.03
2019-04-06T15:28:43.389Z,47.68
2019-04-06T15:31:32.957Z,47.72
2019-04-06T15:34:40.876Z,48.45
2019-04-06T15:37:36.606Z,49.53
2019-04-06T15:40:18.724Z,49.42
2019-04-06T15:43:14.837Z,49.50
2019-04-06T15:46:14.109Z,49.29
2019-04-06T15:49:02.934Z,49.52
2019-04-06T15:51:40.456Z,49.51
2019-04-06T15:54:18.107Z,49.69
2019-04-06T15:57:14.038Z,49.75
2019-04-06T15:59:51.173Z,50.12
2019-04-06T16:02:30.228Z,50.49
2019-04-06T16:05:14.803Z,50.85
2019-04-06T16:08:02.089Z,51.16
2019-04-06T16:10:51.216Z,51.30
2019-04-06T16:13:40.893Z,51.87
2019-04-06T16:16:16.021Z,52.35
2019-04-06T16:19:01.369Z,52.76
2019-04-06T16:21:54.589Z,53.02
2019-04-06T16:24:50.734Z,53.08
2019-04-06T16:27:43.748Z,52.53
2019-04-06T16:30:42.838Z,52.19
2019-04-06T16:33:35.585Z,52.39
2019-04-06T16:36:26.007Z,52.22
2019-04-06T16:39:16.609Z,52.25
2019-04-06T16:42:15.738Z,52.06
2019-04-06T16:45:26.552Z,52.68
2019-04-06T16:48:19.364Z,52.28
2019-04-06T16:51:09.091Z,51.77
2019-04-06T16:53:54.991Z,52.27
2019-04-06T16:56:33.230Z,52.14
2019-04-06T16:59:26.057Z,51.92
2019-04-06T17:02:04.335Z,52.48
2019-04-06T17:04:52.601Z,52.54
2019-04-06T17:07:30.582Z,52.58
2019-04-06T17:10:23.260Z,52.27
2019-04-06T17:13:06.158Z,52.49
2019-04-06T17:15:47.334Z,52.53
2019-04-06T17:18:39.975Z,52.64
2019-04-06T17:21:32.916Z,52.96
2019-04-06T17:24:25.851Z,53.64
2019-04-06T17:27:05.938Z,53.28
2019-04-06T17:29:52.142Z,54.22
2019-04-06T17:32:42.488Z,54.05
2019-04-06T17:35:24.749Z,54.70
2019-04-06T17:38:23.824Z,55.62
2019-04-06T17:41:25.475Z,54.88
2019-04-06T17:44:21.453Z,55.87
2019-04-06T17:47:15.766Z,56.22
2019-04-06T17:50:09.278Z,56.92
2019-04-06T17:52:49.367Z,56.31
2019-04-06T17:55:36.264Z,56.08
2019-04-06T17:58:37.936Z,55.71
2019-04-06T18:01:30.837Z,56.48
2019-04-06T18:04:19.754Z,57.85
2019-04-06T18:07:15.582Z,57.76
2019-04-06T18:10:11.480Z,57.65
2019-04-06T18:12:51.487Z,57.33
2019-04-06T18:15:26.109Z,59.36
2019-04-06T18:17:59.047Z,58.27
2019-04-06T18:20:33.253Z,58.53
2019-04-06T18:23:05.427Z,58.06
2019-04-06T18:25:40.408Z,58.97
2019-04-06T18:28:15.029Z,59.72
2019-04-06T18:31:08.184Z,60.14
2019-04-06T18:34:23.259Z,61.42
2019-04-06T18:37:12.726Z,59.24
2019-04-06T18:39:43.713Z,59.51
2019-04-06T18:42:16.289Z,59.86
2019-04-06T18:44:47.200Z,60.59
2019-04-06T18:47:30.146Z,59.90
2019-04-06T18:50:05.633Z,59.19
2019-04-06T18:52:37.331Z,59.62
2019-04-06T18:55:11.642Z,60.14
2019-04-06T18:57:50.492Z,60.01
2019-04-06T19:00:35.858Z,59.82
2019-04-06T19:07:17.610Z,59.85
2019-04-06T19:10:09.876Z,60.70
2019-04-06T19:12:47.277Z,61.06
2019-04-06T19:15:28.506Z,61.07
2019-04-06T19:18:13.558Z,61.64
2019-04-06T19:20:51.642Z,62.92
2019-04-06T19:23:24.256Z,62.36
2019-04-06T19:26:01.945Z,62.07
2019-04-06T19:28:37.979Z,63.09
2019-04-06T19:36:08.866Z,64.13
2019-04-06T19:53:11.177Z,55.73
2019-04-06T19:55:42.191Z,60.75
2019-04-06T19:58:12.903Z,62.93
2019-04-06T20:00:44.087Z,65.42
2019-04-06T20:03:15.479Z,66.63
2019-04-06T20:05:46.703Z,67.10
2019-04-06T20:08:17.503Z,68.41
2019-04-06T20:10:48.641Z,69.76
2019-04-06T20:13:19.942Z,69.16
2019-04-06T20:15:50.747Z,69.65
2019-04-06T20:18:21.560Z,70.33
2019-04-06T20:20:52.246Z,70.27
2019-04-06T20:23:23.140Z,70.54
2019-04-06T20:25:53.772Z,71.01
2019-04-06T20:28:24.683Z,71.10
2019-04-06T20:30:55.485Z,72.70
2019-04-06T20:33:26.352Z,72.17
2019-04-06T20:35:57.282Z,71.99
2019-04-06T20:38:28.004Z,73.36
2019-04-06T20:40:58.757Z,72.52
2019-04-06T20:43:29.617Z,73.86
2019-04-06T20:46:00.900Z,73.98
2019-04-06T20:48:32.059Z,73.74
2019-04-06T20:51:02.721Z,74.35
2019-04-06T20:53:33.450Z,73.93
2019-04-06T20:56:04.471Z,75.11
2019-04-06T20:58:35.964Z,74.78
2019-04-06T21:01:07.892Z,75.62
2019-04-06T21:03:39.142Z,75.37
2019-04-06T21:06:09.789Z,74.97
2019-04-06T21:08:40.521Z,75.09
2019-04-06T21:11:14.397Z,76.04
2019-04-06T21:13:45.129Z,75.81
2019-04-06T21:16:16.865Z,74.91
2019-04-06T21:18:48.090Z,75.49
2019-04-06T21:21:19.412Z,77.45
2019-04-06T21:23:50.315Z,76.85
2019-04-06T21:26:21.525Z,76.61
2019-04-06T21:28:52.230Z,76.47
2019-04-06T21:31:23.212Z,77.19
2019-04-06T21:33:53.997Z,76.84
2019-04-06T21:36:25.383Z,76.87
2019-04-06T21:38:56.347Z,77.87
2019-04-06T21:41:27.835Z,77.47
2019-04-06T21:44:00.054Z,77.16
2019-04-06T21:46:31.424Z,77.23
2019-04-06T21:49:02.331Z,77.09
2019-04-06T21:51:34.645Z,77.19
2019-04-06T21:54:05.550Z,77.64
2019-04-06T21:56:36.283Z,77.45
2019-04-06T21:59:09.091Z,77.42
2019-04-06T22:01:40.253Z,77.45
2019-04-06T22:04:23.059Z,78.69
2019-04-06T22:06:43.497Z,78.49
2019-04-06T22:09:14.726Z,78.38
2019-04-06T22:11:46.388Z,77.61
2019-04-06T22:14:17.690Z,78.57
2019-04-06T22:16:48.585Z,79.09
2019-04-06T22:19:19.294Z,78.32
2019-04-06T22:21:50.515Z,78.39
2019-04-06T22:24:21.386Z,79.24
2019-04-06T22:26:52.037Z,78.32
2019-04-06T22:29:23.760Z,78.82
2019-04-06T22:31:54.600Z,79.29
2019-04-06T22:34:34.736Z,79.11
2019-04-06T22:36:58.039Z,79.05
2019-04-06T22:39:29.792Z,79.66
2019-04-06T22:42:00.597Z,79.17
2019-04-06T22:44:32.787Z,79.35
2019-04-06T22:47:03.631Z,79.56
2019-04-06T22:49:34.900Z,78.91
2019-04-06T22:52:05.667Z,78.96
2019-04-06T22:54:36.590Z,79.17
2019-04-06T22:57:08.021Z,79.54
2019-04-06T22:59:39.235Z,80.15
2019-04-06T23:02:11.960Z,79.03
2019-04-06T23:05:01.651Z,79.35
2019-04-06T23:07:32.616Z,79.54
2019-04-06T23:10:03.267Z,79.52
2019-04-06T23:12:34.113Z,79.49
2019-04-06T23:15:06.058Z,79.64
2019-04-06T23:17:36.839Z,79.36
2019-04-06T23:20:08.352Z,79.22
2019-04-06T23:22:39.002Z,78.99
2019-04-06T23:25:09.636Z,79.25
2019-04-06T23:27:40.458Z,79.43
2019-04-06T23:30:12.044Z,79.00
2019-04-06T23:32:42.904Z,79.09
2019-04-06T23:35:13.984Z,78.98
2019-04-06T23:37:45.045Z,79.32
2019-04-06T23:40:15.779Z,79.16
2019-04-06T23:42:46.820Z,79.02
2019-04-06T23:45:17.567Z,79.06
2019-04-06T23:47:48.394Z,79.03
2019-04-06T23:50:20.650Z,79.16
2019-04-06T23:52:51.578Z,79.31
2019-04-06T23:55:22.245Z,79.07
2019-04-06T23:57:53.326Z,79.51
